Time;durP1;ratioP1;P1;durP2;ratioP2;P2;SDS_P1;SDS_P2;PMS_P1;PMS_P2;Temp;Humidity;BMP_temperature;BMP_pressure;BME280_temperature;BME280_humidity;BME280_pressure;Samples;Min_cycle;Max_cycle;Signal;HPM_P1;HPM_P2
2023/08/28 00:02:15;;;;;;;10.60;6.90;;;;;;;22.66;76.18;98222.27;105554;1260;76360;-22
2023/08/28 00:04:43;;;;;;;8.40;6.10;;;;;;;22.64;75.58;98221.42;105640;1259;77394;-22
2023/08/28 00:07:12;;;;;;;7.80;5.70;;;;;;;22.41;75.93;98219.56;105836;1254;72723;-22
2023/08/28 00:09:40;;;;;;;10.40;5.50;;;;;;;22.13;76.53;98216.80;105640;1254;62165;-22
2023/08/28 00:12:08;;;;;;;7.70;5.80;;;;;;;21.86;77.32;98217.38;105662;1253;62750;-22
2023/08/28 00:14:36;;;;;;;5.60;3.90;;;;;;;21.64;78.23;98216.70;105506;1254;77706;-22
2023/08/28 00:17:07;;;;;;;5.20;3.60;;;;;;;22.02;78.29;98214.14;105712;1254;76761;-22
2023/08/28 00:19:35;;;;;;;6.80;3.80;;;;;;;22.46;76.80;98208.26;105598;1255;76605;-22
2023/08/28 00:22:03;;;;;;;8.10;4.30;;;;;;;22.42;76.31;98203.69;105521;1260;61164;-22
2023/08/28 00:24:31;;;;;;;5.20;4.20;;;;;;;22.18;76.64;98201.26;105528;1259;61225;-22
2023/08/28 00:26:58;;;;;;;7.30;4.70;;;;;;;21.90;77.09;98201.12;105550;1260;72691;-22
2023/08/28 00:29:26;;;;;;;5.90;4.50;;;;;;;21.61;77.54;98203.16;105449;1254;76813;-22
2023/08/28 00:31:54;;;;;;;5.60;3.50;;;;;;;21.38;78.59;98201.27;105456;1260;73609;-22
2023/08/28 00:34:22;;;;;;;6.10;4.10;;;;;;;21.76;78.89;98198.98;105426;1260;62565;-22
2023/08/28 00:36:50;;;;;;;7.40;4.50;;;;;;;22.20;77.41;98198.27;105434;1254;62349;-22
2023/08/28 00:39:18;;;;;;;7.40;5.30;;;;;;;22.22;76.86;98199.74;105695;1260;76296;-22
2023/08/28 00:41:46;;;;;;;12.90;6.00;;;;;;;22.03;77.13;98195.35;105687;1254;78413;-22
2023/08/28 00:44:14;;;;;;;9.90;6.20;;;;;;;21.77;77.72;98196.16;105658;1258;74066;-23
2023/08/28 00:46:42;;;;;;;11.50;7.00;;;;;;;21.51;78.39;98203.73;105666;1261;64214;-22
2023/08/28 00:49:11;;;;;;;7.80;5.10;;;;;;;21.30;79.77;98205.48;105371;1254;61819;-22
2023/08/28 00:51:38;;;;;;;7.00;4.90;;;;;;;21.74;80.01;98204.98;105362;1254;76277;-22
2023/08/28 00:54:07;;;;;;;7.70;6.10;;;;;;;22.21;78.34;98204.36;105376;1254;76804;-22
2023/08/28 00:56:36;;;;;;;8.80;6.90;;;;;;;22.24;77.47;98202.48;105418;1261;71723;-22
2023/08/28 00:59:04;;;;;;;13.40;9.20;;;;;;;22.04;77.65;98198.35;105510;1257;61266;-22
2023/08/28 01:01:32;;;;;;;14.60;13.00;;;;;;;21.79;78.40;98198.31;105585;1260;61106;-22
2023/08/28 01:04:00;;;;;;;13.30;11.70;;;;;;;21.55;79.15;98196.64;105720;1259;77677;-22
2023/08/28 01:06:47;;;;;;;9.80;7.10;;;;;;;21.35;79.87;98194.57;105688;1254;76372;-22
2023/08/28 01:09:28;;;;;;;10.70;7.40;;;;;;;21.86;79.50;98194.48;105549;1254;71453;-22
2023/08/28 01:12:08;;;;;;;10.80;7.60;;;;;;;22.29;77.64;98193.66;105617;1259;62603;-22
2023/08/28 01:15:04;;;;;;;12.40;9.20;;;;;;;22.23;76.99;98193.48;105439;1263;62488;-22
2023/08/28 01:17:32;;;;;;;13.00;8.00;;;;;;;21.96;77.23;98197.00;105622;1259;78243;-22
2023/08/28 01:20:02;;;;;;;10.30;8.60;;;;;;;21.70;77.70;98199.98;105694;1254;74512;-22
2023/08/28 01:22:36;;;;;;;6.20;5.30;;;;;;;21.44;78.47;98195.31;105617;1260;76662;-22
2023/08/28 01:25:10;;;;;;;9.30;6.00;;;;;;;21.77;78.49;98195.64;105622;1260;62827;-22
2023/08/28 01:27:38;;;;;;;9.20;5.60;;;;;;;22.14;76.86;98195.52;105370;1261;62769;-22
2023/08/28 01:30:07;;;;;;;5.40;4.90;;;;;;;22.09;76.44;98192.26;105370;1254;76269;-22
2023/08/28 01:32:35;;;;;;;9.70;5.80;;;;;;;21.84;76.61;98194.92;105452;1254;76634;-22
2023/08/28 01:35:06;;;;;;;7.90;6.00;;;;;;;21.55;77.30;98196.93;105469;1259;76669;-22
2023/08/28 01:37:39;;;;;;;8.80;6.20;;;;;;;21.25;78.14;98197.73;105392;1261;61869;-22
2023/08/28 01:40:09;;;;;;;7.40;5.10;;;;;;;21.04;79.63;98197.32;105628;1261;61165;-22
2023/08/28 01:42:37;;;;;;;10.20;5.20;;;;;;;21.47;79.59;98197.57;105665;1254;76282;-22
2023/08/28 01:45:06;;;;;;;8.30;5.90;;;;;;;21.91;77.93;98198.61;105468;1262;78422;-22
2023/08/28 01:47:34;;;;;;;7.30;5.70;;;;;;;21.93;77.17;98192.52;105525;1262;71794;-22
2023/08/28 01:50:03;;;;;;;10.80;6.70;;;;;;;21.74;77.30;98194.95;105729;1260;61167;-22
2023/08/28 01:52:31;;;;;;;9.20;6.80;;;;;;;21.47;77.60;98195.73;105700;1253;61148;-22
2023/08/28 01:54:59;;;;;;;8.50;6.40;;;;;;;21.14;77.59;98197.96;105671;1258;76269;-22
2023/08/28 01:57:26;;;;;;;7.70;5.60;;;;;;;20.93;78.84;98200.66;105657;1260;74424;-22
2023/08/28 01:59:54;;;;;;;8.40;5.90;;;;;;;21.32;79.63;98200.81;105622;1254;74339;-22
2023/08/28 02:02:23;;;;;;;8.00;6.10;;;;;;;21.76;78.01;98199.65;105531;1255;62556;-22
2023/08/28 02:04:51;;;;;;;9.50;6.20;;;;;;;21.73;77.78;98197.56;105494;1254;63471;-22
2023/08/28 02:07:19;;;;;;;14.90;7.70;;;;;;;21.51;78.05;98197.17;105593;1259;76295;-22
2023/08/28 02:09:47;;;;;;;12.30;8.00;;;;;;;21.28;78.66;98191.64;105562;1260;78351;-22
2023/08/28 02:12:15;;;;;;;11.40;7.70;;;;;;;21.06;79.18;98198.00;105706;1254;76679;-22
2023/08/28 02:14:43;;;;;;;8.30;6.30;;;;;;;20.87;80.08;98197.09;105631;1254;61192;-22
2023/08/28 02:17:11;;;;;;;13.10;7.10;;;;;;;21.28;79.97;98193.02;105502;1259;62301;-22
2023/08/28 02:19:39;;;;;;;17.50;9.90;;;;;;;21.75;77.98;98186.54;105414;1254;76323;-22
2023/08/28 02:22:08;;;;;;;26.30;12.10;;;;;;;21.76;77.05;98187.48;105599;1254;74431;-23
2023/08/28 02:24:36;;;;;;;18.90;10.50;;;;;;;21.53;76.71;98188.60;105618;1255;74232;-22
2023/08/28 02:27:04;;;;;;;14.40;7.60;;;;;;;21.22;77.22;98188.47;105680;1259;61042;-22
2023/08/28 02:29:31;;;;;;;9.20;6.00;;;;;;;20.94;78.17;98190.42;105665;1254;61217;-22
2023/08/28 02:31:59;;;;;;;7.00;4.50;;;;;;;20.71;79.22;98195.65;105646;1254;73870;-22
2023/08/28 02:34:27;;;;;;;5.50;4.20;;;;;;;21.09;79.48;98194.15;105664;1254;73260;-22
2023/08/28 02:36:55;;;;;;;6.60;4.60;;;;;;;21.52;77.69;98190.23;105635;1254;76657;-23
2023/08/28 02:39:23;;;;;;;7.90;4.30;;;;;;;21.52;76.99;98188.92;105665;1254;61850;-22
2023/08/28 02:41:51;;;;;;;9.50;5.50;;;;;;;21.27;77.40;98185.42;105891;1257;61454;-22
2023/08/28 02:44:19;;;;;;;9.30;6.00;;;;;;;21.00;78.20;98187.29;105684;1254;76322;-22
2023/08/28 02:46:47;;;;;;;8.60;5.30;;;;;;;20.73;79.00;98193.00;105651;1254;76882;-22
2023/08/28 02:49:15;;;;;;;8.60;4.10;;;;;;;20.51;79.86;98191.23;105590;1259;74894;-24
2023/08/28 02:51:42;;;;;;;5.80;4.40;;;;;;;20.91;80.14;98193.32;105669;1259;61205;-23
2023/08/28 02:54:10;;;;;;;8.20;5.50;;;;;;;21.36;78.61;98193.38;105625;1259;61141;-23
2023/08/28 02:56:38;;;;;;;7.40;4.90;;;;;;;21.40;78.06;98197.50;105614;1259;72658;-23
2023/08/28 02:59:07;;;;;;;7.60;5.40;;;;;;;21.22;78.07;98199.63;105592;1259;73199;-23
2023/08/28 03:01:35;;;;;;;8.10;5.80;;;;;;;20.97;78.53;98200.17;105688;1254;72741;-23
2023/08/28 03:04:06;;;;;;;8.00;5.90;;;;;;;20.74;79.13;98207.00;105671;1254;62546;-23
2023/08/28 03:06:35;;;;;;;6.90;4.40;;;;;;;20.54;80.05;98207.62;105548;1254;61583;-23
2023/08/28 03:09:04;;;;;;;7.50;4.70;;;;;;;20.99;80.36;98207.19;105676;1254;76730;-23
2023/08/28 03:11:32;;;;;;;8.60;5.40;;;;;;;21.49;78.39;98202.40;105671;1263;76753;-23
2023/08/28 03:13:59;;;;;;;7.10;5.30;;;;;;;21.52;77.66;98202.09;105820;1253;73119;-23
2023/08/28 03:16:28;;;;;;;7.10;6.00;;;;;;;21.33;77.61;98204.19;105714;1252;61482;-23
2023/08/28 03:18:56;;;;;;;9.80;6.20;;;;;;;21.09;78.03;98205.27;105666;1253;61236;-23
2023/08/28 03:21:23;;;;;;;9.80;6.80;;;;;;;20.83;78.65;98206.52;105662;1254;73871;-23
2023/08/28 03:23:51;;;;;;;6.10;4.60;;;;;;;20.61;79.63;98204.41;105782;1254;77113;-23
2023/08/28 03:26:19;;;;;;;9.00;6.20;;;;;;;21.00;79.90;98209.09;105714;1254;76723;-23
2023/08/28 03:28:47;;;;;;;7.60;5.50;;;;;;;21.39;78.80;98204.32;105503;1259;63954;-23
2023/08/28 03:31:15;;;;;;;6.40;5.60;;;;;;;21.38;78.42;98202.53;105575;1252;62779;-23
2023/08/28 03:33:43;;;;;;;10.10;6.90;;;;;;;21.14;79.53;98203.11;105618;1260;75710;-23
2023/08/28 03:36:11;;;;;;;9.40;7.80;;;;;;;20.87;81.14;98203.41;105504;1254;74447;-23
2023/08/28 03:38:39;;;;;;;7.80;5.50;;;;;;;20.64;82.13;98205.59;105474;1254;72685;-23
2023/08/28 03:41:08;;;;;;;9.40;5.90;;;;;;;20.95;82.30;98205.27;105568;1259;62464;-23
2023/08/28 03:43:36;;;;;;;8.10;6.90;;;;;;;21.33;80.98;98202.48;105637;1258;61128;-23
2023/08/28 03:46:04;;;;;;;11.70;8.40;;;;;;;21.32;81.08;98203.39;105601;1254;73910;-23
2023/08/28 03:48:33;;;;;;;9.90;7.10;;;;;;;21.19;81.41;98208.02;105646;1254;73236;-23
2023/08/28 03:51:01;;;;;;;12.30;8.50;;;;;;;21.05;82.08;98203.49;105622;1255;72755;-23
2023/08/28 03:53:29;;;;;;;11.20;6.80;;;;;;;20.92;82.93;98202.52;105532;1256;61710;-23
2023/08/28 03:55:57;;;;;;;9.90;7.20;;;;;;;21.31;82.62;98206.40;105473;1259;64052;-23
2023/08/28 03:58:24;;;;;;;8.90;6.60;;;;;;;21.71;80.68;98204.59;105644;1260;73831;-23
2023/08/28 04:00:55;;;;;;;9.40;7.40;;;;;;;21.76;79.86;98205.86;105478;1254;77300;-23
2023/08/28 04:03:23;;;;;;;9.70;7.40;;;;;;;21.72;79.52;98207.06;105525;1254;72690;-23
2023/08/28 04:05:52;;;;;;;10.30;7.90;;;;;;;21.59;79.03;98211.94;105639;1253;61183;-23
2023/08/28 04:08:21;;;;;;;6.90;6.10;;;;;;;21.41;80.03;98213.42;105721;1253;61463;-23
2023/08/28 04:10:49;;;;;;;8.70;6.20;;;;;;;21.76;79.97;98216.64;105655;1259;76034;-23
2023/08/28 04:13:17;;;;;;;10.40;7.30;;;;;;;21.99;78.71;98211.25;105671;1259;75560;-23
2023/08/28 04:15:44;;;;;;;15.60;8.20;;;;;;;21.89;79.08;98216.20;105616;1259;75180;-23
2023/08/28 04:18:17;;;;;;;12.30;8.30;;;;;;;21.70;79.87;98216.04;105684;1254;61163;-23
2023/08/28 04:20:45;;;;;;;8.70;6.40;;;;;;;21.52;80.76;98214.95;105727;1259;63820;-23
2023/08/28 04:23:15;;;;;;;8.30;6.70;;;;;;;21.71;80.59;98214.13;105832;1256;72610;-23
2023/08/28 04:25:42;;;;;;;10.10;7.20;;;;;;;21.99;79.19;98210.02;105661;1254;73893;-23
2023/08/28 04:28:12;;;;;;;10.50;8.00;;;;;;;21.94;79.07;98213.86;105654;1259;72785;-23
2023/08/28 04:30:41;;;;;;;11.60;8.30;;;;;;;21.78;79.63;98214.02;105746;1257;62358;-23
2023/08/28 04:33:09;;;;;;;8.70;6.20;;;;;;;21.71;80.03;98213.71;105657;1254;61151;-23
2023/08/28 04:35:37;;;;;;;9.30;7.70;;;;;;;21.74;80.42;98216.23;105594;1258;75557;-23
2023/08/28 04:38:05;;;;;;;10.20;7.90;;;;;;;22.02;79.04;98213.46;105631;1259;74635;-23
2023/08/28 04:40:33;;;;;;;9.10;7.80;;;;;;;22.09;78.46;98212.85;105588;1256;73191;-23
2023/08/28 04:43:00;;;;;;;11.10;8.70;;;;;;;22.07;78.50;98211.20;105478;1254;63264;-23
2023/08/28 04:45:29;;;;;;;14.40;7.50;;;;;;;21.99;78.87;98209.49;105570;1260;62538;-23
2023/08/28 04:47:57;;;;;;;7.50;6.40;;;;;;;22.05;78.87;98208.77;105691;1254;76312;-23
2023/08/28 04:50:25;;;;;;;13.90;7.70;;;;;;;22.60;77.91;98208.55;105670;1254;78408;-23
2023/08/28 04:52:53;;;;;;;11.50;7.40;;;;;;;23.05;75.69;98207.83;105681;1258;76574;-23
2023/08/28 04:55:20;;;;;;;10.40;7.50;;;;;;;23.12;74.75;98207.31;105597;1255;61114;-23
2023/08/28 04:57:48;;;;;;;10.00;6.90;;;;;;;23.12;74.61;98207.78;105413;1254;61150;-23
2023/08/28 05:00:18;;;;;;;10.50;8.10;;;;;;;23.13;74.80;98206.69;105395;1259;75238;-23
2023/08/28 05:02:45;;;;;;;8.90;6.30;;;;;;;23.12;75.11;98203.84;105503;1261;77503;-23
2023/08/28 05:05:13;;;;;;;9.50;6.30;;;;;;;23.65;73.58;98203.42;105625;1254;73499;-23
2023/08/28 05:07:41;;;;;;;10.20;7.00;;;;;;;23.98;70.84;98202.18;105567;1257;61056;-23
2023/08/28 05:10:09;;;;;;;12.70;7.40;;;;;;;23.83;70.51;98200.15;105404;1259;62512;-23
2023/08/28 05:12:37;;;;;;;15.20;8.20;;;;;;;23.71;71.12;98200.90;105638;1254;77706;-23
2023/08/28 05:15:06;;;;;;;11.00;7.20;;;;;;;23.64;71.11;98199.77;105506;1259;74598;-24
2023/08/28 05:17:34;;;;;;;10.30;6.50;;;;;;;23.61;71.29;98196.42;105490;1254;71469;-23
2023/08/28 05:20:02;;;;;;;9.30;7.60;;;;;;;23.68;70.90;98194.13;105587;1253;61141;-23
2023/08/28 05:22:30;;;;;;;10.70;5.50;;;;;;;23.77;70.83;98195.92;105655;1252;63219;-23
2023/08/28 05:24:57;;;;;;;8.20;6.10;;;;;;;24.12;69.39;98197.16;105647;1259;76284;-23
2023/08/28 05:27:25;;;;;;;10.60;6.80;;;;;;;24.55;67.99;98196.47;105681;1254;76804;-23
2023/08/28 05:29:53;;;;;;;21.70;7.50;;;;;;;24.58;67.67;98193.95;105598;1254;73980;-23
2023/08/28 05:32:22;;;;;;;21.60;8.20;;;;;;;24.54;67.75;98193.19;105664;1254;61477;-23
2023/08/28 05:34:50;;;;;;;12.00;7.20;;;;;;;24.45;67.97;98194.91;105513;1253;61256;-23
2023/08/28 05:37:19;;;;;;;9.50;7.50;;;;;;;24.34;68.27;98194.21;105799;1257;72593;-23
2023/08/28 05:39:47;;;;;;;9.10;6.90;;;;;;;24.27;68.33;98199.38;105667;1254;74426;-23
2023/08/28 05:42:15;;;;;;;12.40;7.50;;;;;;;24.08;68.46;98197.53;105664;1257;74817;-23
2023/08/28 05:44:45;;;;;;;8.30;7.00;;;;;;;24.01;69.25;98197.96;105612;1254;61147;-23
2023/08/28 05:47:14;;;;;;;11.70;6.10;;;;;;;24.08;69.67;98196.71;105710;1258;61220;-23
2023/08/28 05:49:42;;;;;;;10.80;7.30;;;;;;;24.60;67.77;98192.02;105822;1254;71798;-23
2023/08/28 05:52:10;;;;;;;12.10;7.10;;;;;;;25.03;66.33;98193.73;105689;1254;78364;-23
2023/08/28 05:54:38;;;;;;;9.60;7.10;;;;;;;25.14;65.83;98192.20;105623;1257;74937;-22
2023/08/28 05:57:06;;;;;;;9.00;6.80;;;;;;;25.10;66.45;98189.59;105834;1257;61526;-23
2023/08/28 05:59:34;;;;;;;10.80;6.70;;;;;;;25.14;66.49;98189.23;105674;1252;62755;-22
2023/08/28 06:02:04;;;;;;;13.90;6.40;;;;;;;25.07;66.61;98191.71;105703;1253;76542;-22
2023/08/28 06:04:33;;;;;;;11.80;7.60;;;;;;;24.96;67.02;98187.38;105824;1257;73225;-23
2023/08/28 06:07:01;;;;;;;9.20;7.30;;;;;;;24.97;67.13;98186.33;105673;1254;71489;-23
2023/08/28 06:09:29;;;;;;;23.90;7.10;;;;;;;24.99;67.17;98187.05;105671;1256;63927;-23
2023/08/28 06:11:57;;;;;;;11.40;6.50;;;;;;;25.02;67.31;98184.65;105710;1259;63832;-23
2023/08/28 06:14:25;;;;;;;8.10;5.20;;;;;;;25.10;67.35;98183.34;105620;1254;77702;-23
2023/08/28 06:16:52;;;;;;;7.30;6.00;;;;;;;25.68;65.44;98181.24;105610;1254;78817;-23
2023/08/28 06:19:21;;;;;;;8.80;5.80;;;;;;;26.30;64.03;98177.05;105629;1254;75412;-22
2023/08/28 06:21:48;;;;;;;10.80;5.50;;;;;;;26.62;62.84;98177.39;105547;1252;61157;-23
2023/08/28 06:24:16;;;;;;;8.80;6.60;;;;;;;26.65;61.85;98172.73;105608;1254;61004;-22
2023/08/28 06:26:44;;;;;;;17.90;6.60;;;;;;;26.65;61.96;98172.08;105676;1260;77296;-23
2023/08/28 06:29:14;;;;;;;12.20;6.80;;;;;;;26.70;62.49;98174.84;105689;1254;77397;-22
2023/08/28 06:31:44;;;;;;;9.10;6.60;;;;;;;26.85;62.62;98173.25;105636;1254;71467;-23
2023/08/28 06:34:13;;;;;;;7.80;6.50;;;;;;;26.93;61.57;98177.75;105642;1254;62521;-23
2023/08/28 06:36:41;;;;;;;9.30;6.20;;;;;;;26.98;61.66;98181.44;105826;1257;61439;-23
2023/08/28 06:39:09;;;;;;;13.40;7.00;;;;;;;27.03;60.69;98184.61;105664;1258;76316;-23
2023/08/28 06:41:38;;;;;;;10.50;6.20;;;;;;;27.09;60.87;98183.81;105742;1259;78372;-23
2023/08/28 06:44:06;;;;;;;11.60;6.70;;;;;;;27.23;60.66;98184.19;105646;1254;70638;-22
2023/08/28 06:46:36;;;;;;;9.50;6.10;;;;;;;27.35;59.93;98181.40;105581;1255;62985;-23
2023/08/28 06:49:04;;;;;;;10.80;6.20;;;;;;;27.48;59.91;98178.57;105451;1260;62576;-23
2023/08/28 06:51:32;;;;;;;8.60;5.50;;;;;;;27.64;58.67;98175.62;105667;1255;76373;-22
2023/08/28 06:54:00;;;;;;;8.80;5.80;;;;;;;27.87;57.12;98175.53;105653;1255;74459;-23
2023/08/28 06:56:29;;;;;;;8.80;5.70;;;;;;;28.07;56.24;98176.75;105655;1259;71461;-23
2023/08/28 06:58:57;;;;;;;9.30;5.50;;;;;;;28.26;56.17;98179.95;105742;1255;62541;-23
2023/08/28 07:01:25;;;;;;;8.90;5.60;;;;;;;28.36;55.97;98178.33;105664;1259;63939;-23
2023/08/28 07:03:53;;;;;;;15.00;6.50;;;;;;;28.45;55.73;98183.54;105675;1254;76323;-23
2023/08/28 07:06:21;;;;;;;6.90;5.30;;;;;;;28.65;54.39;98187.86;105477;1254;76789;-23
2023/08/28 07:08:49;;;;;;;10.90;5.30;;;;;;;28.88;54.61;98191.20;105632;1259;75224;-23
2023/08/28 07:11:17;;;;;;;16.70;5.70;;;;;;;29.08;53.94;98201.83;105639;1254;63955;-23
2023/08/28 07:13:45;;;;;;;9.20;4.80;;;;;;;29.20;53.81;98201.92;105680;1253;63233;-23
2023/08/28 07:16:12;;;;;;;12.90;5.90;;;;;;;29.27;53.42;98202.89;105708;1254;77359;-22
2023/08/28 07:18:43;;;;;;;8.90;5.70;;;;;;;29.31;53.09;98197.95;105731;1254;76756;-23
2023/08/28 07:21:11;;;;;;;11.00;5.10;;;;;;;29.40;52.30;98199.09;105667;1258;74135;-22
2023/08/28 07:23:39;;;;;;;12.10;5.20;;;;;;;29.57;51.32;98202.52;105653;1256;62310;-23
2023/08/28 07:26:07;;;;;;;8.10;5.50;;;;;;;29.70;50.90;98202.37;105770;1257;62578;-23
2023/08/28 07:28:35;;;;;;;11.10;5.10;;;;;;;29.80;50.64;98197.73;105616;1254;77742;-23
2023/08/28 07:31:03;;;;;;;8.90;5.50;;;;;;;29.94;49.94;98194.43;105639;1255;68348;-23
2023/08/28 07:33:32;;;;;;;21.10;5.20;;;;;;;30.05;48.92;98190.65;105608;1259;66263;-23
2023/08/28 07:36:00;;;;;;;9.10;4.90;;;;;;;30.15;47.27;98192.00;105617;1254;61166;-23
2023/08/28 07:38:27;;;;;;;12.00;4.60;;;;;;;30.22;46.78;98194.71;105607;1254;61129;-22
2023/08/28 07:40:55;;;;;;;12.20;4.70;;;;;;;30.36;47.85;98199.37;105621;1254;67362;-23
2023/08/28 07:43:23;;;;;;;8.70;4.90;;;;;;;30.57;47.32;98197.73;105557;1254;65495;-23
2023/08/28 07:45:52;;;;;;;8.10;4.60;;;;;;;30.72;46.37;98193.08;105659;1254;65239;-23
2023/08/28 07:48:20;;;;;;;10.80;5.20;;;;;;;30.86;45.20;98194.11;103494;1253;2912796;-23
2023/08/28 07:50:48;;;;;;;11.20;5.10;;;;;;;31.06;45.66;98193.42;105745;1254;61118;-23
2023/08/28 07:53:16;;;;;;;7.20;4.30;;;;;;;31.28;45.33;98191.11;105726;1252;63712;-23
2023/08/28 07:55:44;;;;;;;7.10;4.70;;;;;;;31.50;43.29;98188.75;105602;1254;67984;-23
2023/08/28 07:58:12;;;;;;;11.60;5.00;;;;;;;31.53;42.48;98192.67;105649;1255;66256;-23
2023/08/28 08:00:40;;;;;;;12.40;4.90;;;;;;;31.55;42.85;98195.91;105685;1254;61355;-23
2023/08/28 08:03:08;;;;;;;10.70;5.20;;;;;;;31.58;42.74;98198.04;105694;1252;61154;-23
2023/08/28 08:05:36;;;;;;;12.90;5.00;;;;;;;31.73;42.83;98203.11;105704;1254;67804;-23
2023/08/28 08:08:05;;;;;;;16.80;5.40;;;;;;;31.82;42.04;98199.96;105531;1254;64286;-23
2023/08/28 08:10:33;;;;;;;7.10;4.80;;;;;;;31.79;41.71;98203.28;105599;1261;67043;-23
2023/08/28 08:13:01;;;;;;;11.00;5.20;;;;;;;31.85;41.55;98206.11;105567;1254;61380;-23
2023/08/28 08:15:29;;;;;;;9.00;4.90;;;;;;;31.86;42.06;98206.41;105399;1259;61157;-23
2023/08/28 08:17:57;;;;;;;13.20;5.50;;;;;;;32.03;42.35;98208.88;105726;1257;66340;-23
2023/08/28 08:20:25;;;;;;;6.50;4.40;;;;;;;32.08;42.26;98210.70;105689;1256;65619;-23
2023/08/28 08:22:53;;;;;;;8.90;5.00;;;;;;;32.16;42.32;98205.65;105682;1254;65252;-23
2023/08/28 08:25:22;;;;;;;9.70;5.20;;;;;;;32.21;42.19;98205.71;105519;1259;61081;-23
2023/08/28 08:27:50;;;;;;;8.60;5.30;;;;;;;32.22;42.31;98199.77;105680;1257;62681;-23
2023/08/28 08:30:19;;;;;;;8.80;4.70;;;;;;;32.26;42.02;98200.26;105567;1254;67423;-23
2023/08/28 08:32:47;;;;;;;12.70;5.00;;;;;;;32.37;41.73;98203.86;105575;1258;68217;-23
2023/08/28 08:35:15;;;;;;;8.60;4.60;;;;;;;32.41;41.59;98203.34;105569;1254;65620;-23
2023/08/28 08:37:45;;;;;;;9.70;4.70;;;;;;;32.45;41.57;98198.84;105653;1259;61720;-23
2023/08/28 08:40:13;;;;;;;8.50;4.90;;;;;;;32.42;40.59;98196.88;105793;1252;61109;-23
2023/08/28 08:42:41;;;;;;;7.00;4.40;;;;;;;32.28;40.88;98197.27;105742;1254;64983;-23
2023/08/28 08:45:10;;;;;;;7.80;4.40;;;;;;;32.39;41.67;98198.64;105694;1259;68127;-23
2023/08/28 08:47:40;;;;;;;11.20;4.60;;;;;;;32.50;41.03;98200.35;105607;1254;65088;-23
2023/08/28 08:50:09;;;;;;;7.80;4.80;;;;;;;32.64;40.71;98201.54;105595;1259;61183;-23
2023/08/28 08:52:38;;;;;;;10.50;4.80;;;;;;;32.73;41.06;98204.85;105752;1254;61104;-23
2023/08/28 08:55:20;;;;;;;10.20;5.10;;;;;;;32.81;40.69;98206.80;105749;1254;67546;-23
2023/08/28 08:57:48;;;;;;;9.40;4.90;;;;;;;32.86;40.05;98203.30;105692;1254;66888;-23
2023/08/28 09:00:18;;;;;;;10.10;4.60;;;;;;;32.90;39.53;98201.02;105650;1254;62765;-23
2023/08/28 09:02:46;;;;;;;9.80;5.10;;;;;;;32.93;39.79;98199.25;105697;1257;61180;-23
2023/08/28 09:05:15;;;;;;;12.30;4.40;;;;;;;33.01;39.38;98201.81;105522;1253;61151;-23
2023/08/28 09:07:43;;;;;;;9.10;4.20;;;;;;;33.24;38.03;98203.93;105594;1259;66262;-23
2023/08/28 09:10:12;;;;;;;9.20;4.60;;;;;;;33.45;37.96;98208.94;105468;1260;74559;-23
2023/08/28 09:12:42;;;;;;;8.40;4.20;;;;;;;33.52;38.28;98210.27;105596;1254;63827;-24
2023/08/28 09:15:13;;;;;;;10.80;4.90;;;;;;;33.70;37.61;98208.96;105488;1254;61100;-23
2023/08/28 09:17:41;;;;;;;9.20;4.80;;;;;;;33.76;36.57;98203.98;105617;1254;62506;-23
2023/08/28 09:20:13;;;;;;;8.50;4.60;;;;;;;33.76;36.58;98203.89;105721;1259;66735;-23
2023/08/28 09:22:50;;;;;;;6.90;4.10;;;;;;;33.81;37.10;98200.13;105665;1252;67228;-23
2023/08/28 09:25:22;;;;;;;12.00;4.80;;;;;;;34.02;36.86;98200.56;105592;1261;67037;-23
2023/08/28 09:27:54;;;;;;;7.90;4.20;;;;;;;34.11;36.16;98203.19;105717;1253;61182;-23
2023/08/28 09:30:40;;;;;;;10.50;5.00;;;;;;;34.30;36.18;98199.92;105700;1260;61192;-23
2023/08/28 09:33:08;;;;;;;6.60;4.20;;;;;;;34.45;35.43;98197.98;105666;1262;67387;-23
2023/08/28 09:35:39;;;;;;;6.30;4.40;;;;;;;34.46;35.15;98198.46;105719;1254;64235;-24
2023/08/28 09:38:07;;;;;;;6.80;4.20;;;;;;;34.65;35.40;98194.42;105661;1260;62589;-23
2023/08/28 09:40:40;;;;;;;8.50;4.60;;;;;;;34.82;34.76;98197.73;105662;1257;61173;-23
2023/08/28 09:43:12;;;;;;;8.20;4.20;;;;;;;34.94;34.69;98195.81;105735;1259;61116;-23
2023/08/28 09:45:42;;;;;;;8.50;4.50;;;;;;;35.06;34.27;98192.67;105578;1254;67759;-23
2023/08/28 09:48:10;;;;;;;6.90;4.70;;;;;;;35.48;34.14;98188.05;105496;1261;67741;-24
2023/08/28 09:50:39;;;;;;;7.70;3.70;;;;;;;35.59;33.99;98191.30;105686;1254;64459;-23
2023/08/28 09:53:12;;;;;;;10.00;4.20;;;;;;;35.79;34.21;98191.46;105591;1255;61097;-23
2023/08/28 09:55:50;;;;;;;11.50;4.80;;;;;;;35.97;33.51;98190.48;105666;1259;61333;-22
2023/08/28 09:58:19;;;;;;;8.90;4.20;;;;;;;35.97;33.37;98188.50;105687;1254;66783;-23
2023/08/28 10:00:47;;;;;;;9.10;4.60;;;;;;;35.93;33.87;98187.44;105467;1254;67887;-23
2023/08/28 10:03:15;;;;;;;11.80;4.50;;;;;;;36.05;33.35;98193.42;105744;1254;63829;-23
2023/08/28 10:05:44;;;;;;;7.90;4.80;;;;;;;36.06;33.61;98190.59;105568;1254;61144;-23
2023/08/28 10:08:14;;;;;;;9.20;4.40;;;;;;;36.23;32.78;98189.73;105322;1261;61174;-23
2023/08/28 10:10:45;;;;;;;9.80;4.30;;;;;;;36.14;32.27;98184.31;105478;1254;64976;-23
2023/08/28 10:13:20;;;;;;;13.10;4.30;;;;;;;36.35;32.27;98187.15;105526;1261;68391;-23
2023/08/28 10:16:16;;;;;;;6.30;4.60;;;;;;;36.57;32.02;98181.87;105645;1254;62545;-23
2023/08/28 10:19:10;;;;;;;12.20;5.00;;;;;;;36.64;32.37;98176.05;105723;1254;61220;-23
2023/08/28 10:21:38;;;;;;;10.80;4.80;;;;;;;36.76;32.50;98178.98;105736;1254;61052;-23
2023/08/28 10:24:06;;;;;;;8.80;4.60;;;;;;;36.85;32.17;98177.36;105572;1258;64999;-23
2023/08/28 10:26:34;;;;;;;11.60;4.90;;;;;;;36.90;31.70;98178.09;105339;1254;68272;-23
2023/08/28 10:29:03;;;;;;;8.20;4.90;;;;;;;36.75;31.50;98175.60;105641;1254;65644;-23
2023/08/28 10:31:31;;;;;;;7.70;4.70;;;;;;;36.80;31.49;98176.27;105567;1254;61100;-23
2023/08/28 10:33:59;;;;;;;11.30;4.60;;;;;;;37.05;31.18;98169.30;105272;1254;61247;-23
2023/08/28 10:36:28;;;;;;;8.70;4.40;;;;;;;37.14;32.11;98172.48;105687;1254;67181;-23
2023/08/28 10:39:00;;;;;;;6.50;4.40;;;;;;;37.27;31.38;98167.41;105726;1254;68294;-23
2023/08/28 10:41:28;;;;;;;10.40;4.50;;;;;;;37.46;31.17;98165.66;105642;1254;65267;-23
2023/08/28 10:44:00;;;;;;;8.60;4.60;;;;;;;37.58;30.86;98166.93;105660;1258;61122;-23
2023/08/28 10:46:28;;;;;;;8.20;4.40;;;;;;;37.74;30.48;98164.14;105391;1254;61039;-23
2023/08/28 10:49:00;;;;;;;8.10;4.90;;;;;;;37.74;30.10;98161.42;105402;1259;67377;-23
2023/08/28 10:51:32;;;;;;;11.70;4.90;;;;;;;37.68;30.55;98164.05;105657;1255;68388;-23
2023/08/28 10:54:09;;;;;;;;;;;;;;;37.60;30.13;98164.20;105499;1254;65587;-23
2023/08/28 10:56:39;;;;;;;6.50;5.10;;;;;;;37.43;29.86;98161.00;105683;1254;61135;-23
2023/08/28 11:01:56;;;;;;;10.20;5.10;;;;;;;37.68;30.03;98158.76;102658;1293;600364;-22
2023/08/28 11:04:31;;;;;;;9.50;4.80;;;;;;;37.76;29.74;98161.88;104791;1272;61213;-22
2023/08/28 11:07:00;;;;;;;8.30;4.60;;;;;;;37.87;29.64;98160.46;104801;1269;61124;-22
2023/08/28 11:09:30;;;;;;;9.70;4.80;;;;;;;38.15;29.68;98156.56;104888;1270;62437;-22
2023/08/28 11:11:58;;;;;;;9.40;4.20;;;;;;;38.29;29.59;98155.91;104999;1263;67867;-22
2023/08/28 11:14:31;;;;;;;12.20;4.70;;;;;;;38.43;29.47;98153.71;102953;1263;2872531;-22
2023/08/28 11:17:15;;;;;;;12.70;5.00;;;;;;;38.46;28.99;98153.21;104967;1270;61163;-22
2023/08/28 11:20:02;;;;;;;7.50;5.10;;;;;;;38.16;29.72;98156.34;105218;1263;61036;-23
2023/08/28 11:22:35;;;;;;;6.30;4.70;;;;;;;38.00;30.04;98152.34;104862;1263;63427;-22
2023/08/28 11:25:07;;;;;;;8.90;4.90;;;;;;;38.10;29.79;98156.92;104868;1269;66835;-22
2023/08/28 11:27:53;;;;;;;16.20;5.10;;;;;;;38.24;29.72;98152.92;104894;1266;65656;-22
2023/08/28 11:30:21;;;;;;;9.00;4.90;;;;;;;37.80;29.55;98155.98;105185;1268;61169;-22
2023/08/28 11:32:51;;;;;;;10.20;4.80;;;;;;;37.85;29.26;98154.55;104931;1266;61108;-22
2023/08/28 11:35:20;;;;;;;10.00;4.80;;;;;;;37.89;28.83;98155.80;104892;1261;64227;-22